KCUH

Cushing Municipal Airport

Cushing, Oklahoma, USA
METAR KCUH 162135Z AUTO 00000KT 10SM CLR 15/M02 A3021 RMK AO2 T01461018
Observed Flight Rules
Dec-16 @ 21:35 UTC (26 minutes ago) Visual Flight Rules
Visibility Clouds
10 miles
  • Clear skies
Temperatures Readings
Current 15°C / 59°F
Dewpoint -2°C / 28°F
Humidity 31%
Altimeter 30.21" Hg
Pressure 1023 hPa
Elevation 279
METAR KCUH 162135Z AUTO 00000KT 10SM CLR 15/M02 A3021 RMK AO2 T01461018
Observed Flight Rules
Dec-16 @ 21:35 UTC
(26 minutes ago)
VFR
Clouds
  • Clear skies
Temperature Dewpoint
15°C / 59°F -2°C / 28°F
Humidity Altimeter Pressure
31% 30.21" Hg 1023 hPa